Flight Track Log - Related Links

Times and Time Zones

All times are in EDT time to prevent confusion due to time zone crossing. See the TPJ88 flight status page for this flight to view local times or setup timezone preferences in your user account.

Time Position Orientation Groundspeed Altitude Reporting Facility
EDT Latitude Longitude Course Direction KTS MPH feet Rate Location/Type
Sat 05:47:04 PM 33.9328 -118.4411 260° West 195 224 2,200  Level FlightAware ADS-B
Sat 05:47:13 PM 33.9296 -118.4517 245° Southwest 212 244 2,800 3,316 Climbing FlightAware ADS-B
Sat 05:47:42 PM 33.9114 -118.4825 230° Southwest 261 300 4,300 2,816 Climbing FlightAware ADS-B
Sat 05:48:02 PM 33.8940 -118.5068 226° Southwest 273 314 5,100 2,750 Climbing FlightAware ADS-B
Sat 05:48:54 PM 33.8287 -118.5314 189° South 292 336 7,600 3,000 Climbing FlightAware ADS-B
Sat 05:49:14 PM 33.8086 -118.5353 189° South 299 344 8,700 2,769 Climbing FlightAware ADS-B
Sat 05:49:33 PM 33.7812 -118.5391 181° South 306 352 9,400 3,375 Climbing FlightAware ADS-B
Sat 05:49:46 PM 33.7571 -118.5353 168° South 314 361 10,500 3,250 Climbing FlightAware ADS-B
Sat 05:50:21 PM 33.7090 -118.5199 148° Southeast 338 389 12,000 2,500 Climbing FlightAware ADS-B
Sat 05:50:46 PM 33.6806 -118.4852 113° Southeast 345 397 13,000 2,133 Climbing FlightAware ADS-B
Sat 05:51:06 PM 33.6712 -118.4522 107° East 351 404 13,600 2,160 Climbing FlightAware ADS-B
Sat 05:51:36 PM 33.6587 -118.4005 106° East 373 429 14,800 2,914 Climbing FlightAware ADS-B
Sat 05:51:41 PM 33.6527 -118.3763 106° East 382 440 15,300 2,471 Climbing FlightAware ADS-B
Sat 05:51:53 PM 33.6496 -118.3628 103° East 386 444 15,500 2,690 Climbing FlightAware ADS-B
Sat 05:52:10 PM 33.6449 -118.3147 91° East 388 447 16,600 3,097 Climbing FlightAware ADS-B
Sat 05:52:24 PM 33.6447 -118.2965 90° East 392 451 17,100 2,667 Climbing FlightAware ADS-B
Sat 05:52:46 PM 33.6448 -118.2377 90° East 406 467 18,200 2,813 Climbing FlightAware ADS-B
Sat 05:52:56 PM 33.6448 -118.2265 90° East 411 473 18,600 2,129 Climbing FlightAware ADS-B
Sat 05:53:17 PM 33.6446 -118.1714 90° East 420 483 19,300 2,483 Climbing FlightAware ADS-B
Sat 05:53:25 PM 33.6444 -118.1484 90° East 424 488 19,800 3,091 Climbing FlightAware ADS-B
Sat 05:53:50 PM 33.6443 -118.0915 90° East 433 498 21,000 2,516 Climbing FlightAware ADS-B
Sat 05:53:56 PM 33.6443 -118.0707 89° East 439 505 21,100 1,784 Climbing FlightAware ADS-B
Sat 05:54:27 PM 33.6444 -117.9962 90° East 460 529 22,100 1,700 Climbing FlightAware ADS-B
Sat 05:54:56 PM 33.6443 -117.9178 90° East 481 554 22,800 1,548 Climbing FlightAware ADS-B
Sat 05:54:58 PM 33.6443 -117.9141 90° East 481 554 22,900 1,355 Climbing FlightAware ADS-B
Sat 05:55:27 PM 33.6441 -117.8363 90° East 491 565 23,500 1,500 Climbing FlightAware ADS-B
Sat 05:55:34 PM 33.6440 -117.8145 90° East 495 570 23,800 2,069 Climbing FlightAware ADS-B
Sat 05:55:56 PM 33.6438 -117.7563 90° East 505 581 24,500 1,636 Climbing FlightAware ADS-B
Sat 05:56:07 PM 33.6438 -117.7367 90° East 508 585 24,700 2,000 Climbing FlightAware ADS-B
Sat 05:56:26 PM 33.6435 -117.6696 90° East 517 595 25,500 2,550 Climbing FlightAware ADS-B
Sat 05:56:47 PM 33.6433 -117.6122 90° East 519 597 26,400 2,600 Climbing FlightAware ADS-B
Sat 05:56:56 PM 33.6431 -117.5852 90° East 520 598 26,800 2,462 Climbing FlightAware ADS-B
Sat 05:57:26 PM 33.6427 -117.4975 90° East 522 601 28,000 2,400 Climbing FlightAware ADS-B
Sat 05:57:56 PM 33.6421 -117.4087 90° East 526 605 29,200 2,200 Climbing FlightAware ADS-B
Sat 05:58:26 PM 33.6417 -117.3262 90° East 530 610 30,200 1,976 Climbing FlightAware ADS-B
Sat 05:59:18 PM 33.6405 -117.1793 90° East 535 616 31,900 2,038 Climbing FlightAware ADS-B
Sat 05:59:19 PM 33.6412 -117.2733 91° East 536 617 32,000 2,118 Climbing FlightAware ADS-B (KBNG)
Sat 05:59:52 PM 33.6396 -117.0694 90° East 536 617 33,100 2,000 Climbing FlightAware ADS-B
Sat 06:00:10 PM 33.6391 -117.0157 91° East 540 621 33,700 2,000 Climbing FlightAware ADS-B (KBNG)
Sat 06:00:40 PM 33.6382 -116.9259 91° East 544 626 34,700 1,258 Climbing FlightAware ADS-B (KBNG)
Sat 06:01:12 PM 33.6372 -116.8325 91° East 543 625 35,000 286 Climbing FlightAware ADS-B
Sat 06:01:43 PM 33.6361 -116.7348 91° East 541 623 35,000  Level FlightAware ADS-B (KBNG)
Sat 06:02:16 PM 33.6349 -116.6378 91° East 538 619 35,000  Level FlightAware ADS-B
Sat 06:02:50 PM 33.6339 -116.5582 91° East 517 595 35,000  Level FlightAware ADS-B (KBNG)
Sat 06:03:36 PM 33.6319 -116.4101 91° East 514 592 35,000  Level FlightAware ADS-B
Sat 06:04:14 PM 33.6305 -116.3121 91° East 532 612 35,000  Level FlightAware ADS-B (KBNG)
Sat 06:04:57 PM 33.6283 -116.1712 91° East 550 633 35,000  Level FlightAware ADS-B (KBNG)
Sat 06:05:28 PM 33.6265 -116.0737 91° East 549 632 35,000  Level FlightAware ADS-B (KBNG)
Sat 06:05:58 PM 33.6252 -115.9991 91° East 547 629 35,000 -1,983 Level FlightAware ADS-B
Sat 06:07:29 PM 33.6196 -115.7082 91° East 559 643 31,000 -1,277 Descending FlightAware ADS-B
Sat 06:09:06 PM 33.6128 -115.4038 92° East 568 654 31,000 -79 Level FlightAware ADS-B
Sat 06:11:16 PM 33.6024 -114.9957 92° East 568 654 30,700 -398 Descending FlightAware ADS-B
Sat 06:12:07 PM 33.6025 -114.8703 92° East 545 627 29,800 -1,059 Descending Albuquerque Center
Sat 06:12:41 PM 33.5944 -114.7644 95° East 533 613 29,200 -1,063 Descending Los Angeles Center
Sat 06:13:43 PM 33.5611 -114.5908 103° East 542 624 28,100 -1,065 Descending Los Angeles Center
Sat 06:14:45 PM 33.5281 -114.4192 103° East 536 617 27,000 -1,024 Descending Los Angeles Center
Sat 06:15:46 PM 33.4947 -114.2506 103° East 527 606 26,000 -976 Descending Los Angeles Center
Sat 06:16:48 PM 33.4622 -114.0850 103° East 513 590 25,000 -532 Descending Los Angeles Center
Sat 06:17:50 PM 33.4528 -113.8922 93° East 495 570 24,900  Descending Los Angeles Center
Sat 06:18:52 PM 33.4733 -113.7336 81° East 486 559 25,000  Climbing Los Angeles Center
Sat 06:19:53 PM 33.4919 -113.5750 82° East 480 552 24,900  Descending Los Angeles Center
Sat 06:20:55 PM 33.5128 -113.4144 81° East 485 558 25,000 -968 Climbing Los Angeles Center
Sat 06:21:57 PM 33.5303 -113.2531 83° East 492 566 22,900 -3,770 Descending Los Angeles Center
Sat 06:22:48 PM 33.5481 -113.1108 81° East 451 519 17,900 -4,966 Descending Albuquerque Center
Sat 06:23:24 PM 33.5547 -113.0425 83° East 456 525 15,700 -4,721 Descending Albuquerque Center
Sat 06:23:49 PM 33.5642 -112.9694 81° East 423 487 13,100 -4,623 Descending Albuquerque Center
Sat 06:24:25 PM 33.5797 -112.9039 74° East 438 504 11,000 -3,000 Descending Albuquerque Center
Sat 06:24:49 PM 33.6061 -112.8419 63° Northeast 358 412 10,100 -1,742 Descending Albuquerque Center
Sat 06:25:27 PM 33.6275 -112.7803 67° East 343 395 9,200 -1,574 Descending Albuquerque Center
Sat 06:25:50 PM 33.6450 -112.7483 57° Northeast 307 353 8,500 -1,672 Descending Albuquerque Center
Sat 06:26:28 PM 33.6633 -112.7003 65° Northeast 311 358 7,500 -1,500 Descending Albuquerque Center
Sat 06:27:30 PM 33.7014 -112.6089 63° Northeast 308 354 6,000 -732 Descending Albuquerque Center
Sat 06:28:31 PM 33.7339 -112.5308 63° Northeast 266 306 6,000  Level Albuquerque Center
Sat 06:29:32 PM 33.7692 -112.4408 65° Northeast 253 291 6,000 -49 Level Albuquerque Center
Sat 06:30:34 PM 33.7689 -112.3556 90° East 256 295 5,900  Descending Albuquerque Center
Sat 06:31:35 PM 33.7675 -112.2794 91° East 236 272 6,000 49 Climbing Albuquerque Center
Sat 06:32:37 PM 33.7672 -112.2025 90° East 233 268 6,000  Level Albuquerque Center
Sat 06:33:38 PM 33.7678 -112.1331 89° East 213 245 6,000 -488 Level Albuquerque Center
Sat 06:34:40 PM 33.7769 -112.0631 81° East 213 245 5,000 -488 Descending Albuquerque Center
Sat 06:35:41 PM 33.7611 -111.9972 106° East 209 241 5,000 -244 Level Albuquerque Center
Sat 06:36:43 PM 33.7294 -111.9272 119° Southeast 205 236 4,500 -780 Descending Albuquerque Center
Sat 06:37:44 PM 33.6978 -111.8878 134° Southeast 166 191 3,400 -1,024 Descending Albuquerque Center
Sat 06:38:46 PM 33.6639 -111.8747 162° South 150 173 2,400 -732 Descending Albuquerque Center
Sat 06:39:47 PM 33.6328 -111.8939 207° Southwest 129 148 1,900 -488 Descending Albuquerque Center
Sat 06:40:49 PM 33.6139 -111.9189 228° Southwest 125 144 1,400 -484 Descending Albuquerque Center

Login

Don't have an account? Register now (free) for customized features, flight alerts, and more!